Los Angeles, California
Traffic Map
Current Weather Conditions
Los Angeles, California
Clear
Clear
68°
Feels Like: 68°
Wind Chill: 68° Ceiling: Unl
Heat Index: 68° Visibility: 10mi
Dew Point: 61° Wind: 0mph
Humidity: 78% Direction: ° ()
Pressure: 29.9in Gusts: 0mph
Raw Report DataKCQT 051147Z AUTO 00000KT 10SM CLR 20/16 A2990 RMK AO2 SLP123 T02000161 10233 20200 51003
Traffic Incident Summary
Active as of:
Severity:
Category:
InformationThere was an issue retrieving the traffic information for this location. Please try a different location or try again shortly.
Advertisements
Track Severe Weather on mobile